createdAt,value
2023-02-24T00:00:32.449Z,76.10
2023-02-24T00:03:06.358Z,76.06
2023-02-24T00:05:36.711Z,76.10
2023-02-24T00:08:04.777Z,76.16
2023-02-24T00:10:32.964Z,76.24
2023-02-24T00:13:01.028Z,76.22
2023-02-24T00:15:29.577Z,76.17
2023-02-24T00:17:58.492Z,76.10
2023-02-24T00:20:26.689Z,76.33
2023-02-24T00:22:55.399Z,76.42
2023-02-24T00:25:23.589Z,76.37
2023-02-24T00:27:55.974Z,76.42
2023-02-24T00:30:24.245Z,76.40
2023-02-24T00:32:53.170Z,76.54
2023-02-24T00:35:21.441Z,76.56
2023-02-24T00:37:51.404Z,76.42
2023-02-24T00:40:23.824Z,76.37
2023-02-24T00:42:54.644Z,76.45
2023-02-24T00:45:23.477Z,76.52
2023-02-24T00:47:57.784Z,76.41
2023-02-24T00:50:26.000Z,76.30
2023-02-24T00:52:53.959Z,76.21
2023-02-24T00:55:23.374Z,76.26
2023-02-24T00:57:51.621Z,76.12
2023-02-24T01:00:20.265Z,75.86
2023-02-24T01:02:48.712Z,75.76
2023-02-24T01:05:17.709Z,75.57
2023-02-24T01:07:46.108Z,75.39
2023-02-24T01:10:14.122Z,75.10
2023-02-24T01:12:50.032Z,74.77
2023-02-24T01:15:19.149Z,74.49
2023-02-24T01:17:49.988Z,74.32
2023-02-24T01:20:19.166Z,74.16
2023-02-24T01:22:49.735Z,74.03
2023-02-24T01:25:20.201Z,73.78
2023-02-24T01:27:49.442Z,73.61
2023-02-24T01:30:18.533Z,73.57
2023-02-24T01:32:47.585Z,73.52
2023-02-24T01:35:23.447Z,73.25
2023-02-24T01:37:51.749Z,73.13
2023-02-24T01:40:21.978Z,72.94
2023-02-24T01:42:52.320Z,72.95
2023-02-24T01:45:23.292Z,72.82
2023-02-24T01:47:53.138Z,72.71
2023-02-24T01:50:22.168Z,72.45
2023-02-24T01:52:51.308Z,72.42
2023-02-24T01:55:29.268Z,72.52
2023-02-24T01:57:59.054Z,72.39
2023-02-24T02:00:39.221Z,72.38
2023-02-24T02:03:18.683Z,72.32
2023-02-24T02:05:49.726Z,72.14
2023-02-24T02:08:18.469Z,72.17
2023-02-24T02:10:46.961Z,72.34
2023-02-24T02:13:21.383Z,72.24
2023-02-24T02:16:14.002Z,72.16
2023-02-24T02:18:56.370Z,72.24
2023-02-24T02:21:40.233Z,72.38
2023-02-24T02:24:15.175Z,72.46
2023-02-24T02:27:19.977Z,72.31
2023-02-24T02:30:23.610Z,72.05
2023-02-24T02:33:39.547Z,72.16
2023-02-24T02:36:26.514Z,72.11
2023-02-24T02:38:54.828Z,71.98
2023-02-24T02:41:31.324Z,71.91
2023-02-24T02:44:02.884Z,71.80
2023-02-24T02:46:38.753Z,71.60
2023-02-24T02:49:22.074Z,71.66
2023-02-24T02:52:05.850Z,71.58
2023-02-24T02:54:49.786Z,71.41
2023-02-24T02:57:23.674Z,71.40
2023-02-24T03:00:23.387Z,71.30
2023-02-24T03:02:55.470Z,71.23
2023-02-24T03:05:29.777Z,71.22
2023-02-24T03:07:59.069Z,70.98
2023-02-24T03:10:28.685Z,70.89
2023-02-24T03:13:00.819Z,70.75
2023-02-24T03:15:31.492Z,70.63
2023-02-24T03:18:10.399Z,70.45
2023-02-24T03:20:51.904Z,70.26
2023-02-24T03:23:25.868Z,70.19
2023-02-24T03:25:58.872Z,69.89
2023-02-24T03:28:35.795Z,69.90
2023-02-24T03:31:18.470Z,69.67
2023-02-24T03:33:53.191Z,69.58
2023-02-24T03:36:21.390Z,69.43
2023-02-24T03:38:50.981Z,69.23
2023-02-24T03:41:19.793Z,69.03
2023-02-24T03:43:50.062Z,69.04
2023-02-24T03:46:18.324Z,69.04
2023-02-24T03:48:55.821Z,69.05
2023-02-24T03:51:23.829Z,68.96
2023-02-24T03:54:09.131Z,68.75
2023-02-24T03:56:46.673Z,68.60
2023-02-24T03:59:43.717Z,68.50
2023-02-24T04:02:15.204Z,68.41
2023-02-24T04:04:52.884Z,68.30
2023-02-24T04:07:53.324Z,68.17
2023-02-24T04:10:24.305Z,67.96
2023-02-24T04:13:02.242Z,67.81
2023-02-24T04:15:37.809Z,67.64
2023-02-24T04:18:09.613Z,67.65
2023-02-24T04:20:40.240Z,67.55
2023-02-24T04:23:16.952Z,67.59
2023-02-24T04:25:48.533Z,67.49
2023-02-24T04:28:19.066Z,67.38
2023-02-24T04:30:49.564Z,67.03
2023-02-24T04:33:20.425Z,66.96
2023-02-24T04:35:50.744Z,66.86
2023-02-24T04:38:19.447Z,66.80
2023-02-24T04:40:50.023Z,66.64
2023-02-24T04:43:18.905Z,66.66
2023-02-24T04:45:47.050Z,66.70
2023-02-24T04:48:15.779Z,66.59
2023-02-24T04:50:46.111Z,66.56
2023-02-24T04:53:16.885Z,66.53
2023-02-24T04:55:49.142Z,66.54
2023-02-24T04:58:20.070Z,66.58
2023-02-24T05:00:53.087Z,66.46
2023-02-24T05:03:28.660Z,66.43
2023-02-24T05:06:00.308Z,66.47
2023-02-24T05:08:30.217Z,66.41
2023-02-24T05:10:58.874Z,66.37
2023-02-24T05:13:31.956Z,66.39
2023-02-24T05:16:06.225Z,66.42
2023-02-24T05:18:37.658Z,66.60
2023-02-24T05:21:29.995Z,66.59
2023-02-24T05:23:59.517Z,66.53
2023-02-24T05:26:44.436Z,66.49
2023-02-24T05:29:14.909Z,66.53
2023-02-24T05:31:44.173Z,66.42
2023-02-24T05:34:17.234Z,66.47
2023-02-24T05:36:46.667Z,66.43
2023-02-24T05:39:19.366Z,66.52
2023-02-24T05:41:48.932Z,66.59
2023-02-24T05:44:28.376Z,66.70
2023-02-24T05:46:58.953Z,66.51
2023-02-24T05:49:33.202Z,66.49
2023-02-24T05:52:07.918Z,66.54
2023-02-24T05:54:41.170Z,66.59
2023-02-24T05:57:14.835Z,66.76
2023-02-24T05:59:43.421Z,66.88
2023-02-24T06:02:16.606Z,66.80
2023-02-24T06:04:48.439Z,66.86
2023-02-24T06:07:20.944Z,66.84
2023-02-24T06:09:57.594Z,66.84
2023-02-24T06:12:33.931Z,66.92
2023-02-24T06:15:07.622Z,67.01
2023-02-24T06:17:36.515Z,67.10
2023-02-24T06:20:15.833Z,67.16
2023-02-24T06:22:44.248Z,67.19
2023-02-24T06:25:15.806Z,67.16
2023-02-24T06:27:43.887Z,67.31
2023-02-24T06:30:13.046Z,67.24
2023-02-24T06:32:45.811Z,67.38
2023-02-24T06:35:18.680Z,67.32
2023-02-24T06:37:50.833Z,67.34
2023-02-24T06:40:20.095Z,67.25
2023-02-24T06:42:49.407Z,67.12
2023-02-24T06:45:18.043Z,67.03
2023-02-24T06:47:49.342Z,67.07
2023-02-24T06:50:21.965Z,67.04
2023-02-24T06:52:53.349Z,66.98
2023-02-24T06:55:28.055Z,67.05
2023-02-24T06:58:04.563Z,67.21
2023-02-24T07:00:38.551Z,67.18
2023-02-24T07:03:16.084Z,67.39
2023-02-24T07:05:54.630Z,67.50
2023-02-24T07:08:24.558Z,67.76
2023-02-24T07:10:56.009Z,67.95
2023-02-24T07:13:25.806Z,68.20
2023-02-24T07:16:07.223Z,68.38
2023-02-24T07:18:37.295Z,68.56
2023-02-24T07:21:05.563Z,68.85
2023-02-24T07:23:34.191Z,69.06
2023-02-24T07:26:04.389Z,69.31
2023-02-24T07:28:34.671Z,69.60
2023-02-24T07:31:05.623Z,69.69
2023-02-24T07:33:36.819Z,69.85
2023-02-24T07:36:09.508Z,70.01
2023-02-24T07:38:38.157Z,70.25
2023-02-24T07:41:10.874Z,70.67
2023-02-24T07:43:40.625Z,70.76
2023-02-24T07:46:11.808Z,71.03
2023-02-24T07:48:41.989Z,71.16
2023-02-24T07:51:11.947Z,71.18
2023-02-24T07:53:40.468Z,71.24
2023-02-24T07:56:14.079Z,71.04
2023-02-24T07:58:46.791Z,70.91
2023-02-24T08:01:23.351Z,70.88
2023-02-24T08:03:56.207Z,70.89
2023-02-24T08:06:27.639Z,70.85
2023-02-24T08:08:58.922Z,70.85
2023-02-24T08:11:34.591Z,70.53
2023-02-24T08:14:03.297Z,70.50
2023-02-24T08:16:39.576Z,70.44
2023-02-24T08:19:13.377Z,70.42
2023-02-24T08:21:47.499Z,70.45
2023-02-24T08:24:19.339Z,70.52
2023-02-24T08:26:54.130Z,70.43
2023-02-24T08:29:22.230Z,70.39
2023-02-24T08:31:52.811Z,70.52
2023-02-24T08:34:21.102Z,70.65
2023-02-24T08:36:56.068Z,70.79
2023-02-24T08:39:24.935Z,70.73
2023-02-24T08:41:54.958Z,70.71
2023-02-24T08:44:27.162Z,70.83
2023-02-24T08:46:55.444Z,71.11
2023-02-24T08:49:25.100Z,71.40
2023-02-24T08:51:53.161Z,71.48
2023-02-24T08:54:27.786Z,71.47
2023-02-24T08:56:56.447Z,71.55
2023-02-24T08:59:37.780Z,71.69
2023-02-24T09:02:23.094Z,71.82
2023-02-24T09:04:53.510Z,71.84
2023-02-24T09:07:26.680Z,71.76
2023-02-24T09:09:56.616Z,71.89
2023-02-24T09:12:26.410Z,71.96
2023-02-24T09:15:04.913Z,72.07
2023-02-24T09:17:41.012Z,71.92
2023-02-24T09:20:27.430Z,72.03
2023-02-24T09:23:03.974Z,72.14
2023-02-24T09:25:49.685Z,72.26
2023-02-24T09:28:18.980Z,72.30
2023-02-24T09:30:55.854Z,72.18
2023-02-24T09:33:41.450Z,72.17
2023-02-24T09:36:20.456Z,72.01
2023-02-24T09:39:02.242Z,71.97
2023-02-24T09:42:04.121Z,72.05
2023-02-24T09:44:39.747Z,71.99
2023-02-24T09:47:40.330Z,72.00
2023-02-24T09:50:58.962Z,71.89
2023-02-24T09:53:19.601Z,71.70
2023-02-24T09:56:04.014Z,71.43
2023-02-24T09:58:48.111Z,71.00
2023-02-24T10:01:48.481Z,71.16
2023-02-24T10:04:21.793Z,71.10
2023-02-24T10:07:16.288Z,71.22
2023-02-24T10:09:53.798Z,71.18
2023-02-24T10:12:24.507Z,71.13
2023-02-24T10:15:16.749Z,71.17
2023-02-24T10:17:56.319Z,71.20
2023-02-24T10:20:39.605Z,71.25
2023-02-24T10:23:33.151Z,71.11
2023-02-24T10:26:07.564Z,71.39
2023-02-24T10:28:52.189Z,71.56
2023-02-24T10:31:35.821Z,71.80
2023-02-24T10:34:11.861Z,72.11
2023-02-24T10:36:40.941Z,72.35
2023-02-24T10:39:17.099Z,72.52
2023-02-24T10:41:58.116Z,72.92
2023-02-24T10:44:36.245Z,73.29
2023-02-24T10:47:13.144Z,73.64
2023-02-24T10:49:57.327Z,73.78
2023-02-24T10:52:37.480Z,73.96
2023-02-24T10:55:28.530Z,74.40
2023-02-24T10:58:07.708Z,74.64
2023-02-24T11:01:04.208Z,74.59
2023-02-24T11:03:48.153Z,74.69
2023-02-24T11:06:41.966Z,74.84
2023-02-24T11:09:29.600Z,74.95
2023-02-24T11:12:23.844Z,74.66
2023-02-24T11:15:15.448Z,74.80
2023-02-24T11:17:52.089Z,74.66
2023-02-24T11:20:48.450Z,74.98
2023-02-24T11:23:25.133Z,75.11
2023-02-24T11:25:58.303Z,75.09
2023-02-24T11:28:52.208Z,75.28
2023-02-24T11:31:52.070Z,75.31
2023-02-24T11:34:35.282Z,75.07
2023-02-24T11:37:22.784Z,74.92
2023-02-24T11:39:59.661Z,75.04
2023-02-24T11:42:49.730Z,75.22
2023-02-24T11:45:38.519Z,75.43
2023-02-24T11:48:15.007Z,75.15
2023-02-24T11:50:50.329Z,75.01
2023-02-24T11:53:41.384Z,74.87
2023-02-24T11:56:13.716Z,75.13
2023-02-24T11:58:44.843Z,74.93
2023-02-24T12:01:43.410Z,74.40
2023-02-24T12:04:23.360Z,74.24
2023-02-24T12:07:15.094Z,73.84
2023-02-24T12:10:15.492Z,73.47
2023-02-24T12:13:31.377Z,73.08
2023-02-24T12:16:46.050Z,72.69
2023-02-24T12:19:30.270Z,72.20
2023-02-24T12:22:13.609Z,71.72
2023-02-24T12:24:47.536Z,71.68
2023-02-24T12:27:39.519Z,71.49
2023-02-24T12:30:57.865Z,71.36
2023-02-24T12:34:00.406Z,70.99
2023-02-24T12:36:52.735Z,70.61
2023-02-24T12:39:22.538Z,69.97
2023-02-24T12:42:12.949Z,69.52
2023-02-24T12:45:05.533Z,69.20
2023-02-24T12:47:58.685Z,69.26
2023-02-24T12:50:46.879Z,69.33
2023-02-24T12:53:37.213Z,69.24
2023-02-24T12:56:24.819Z,68.99
2023-02-24T12:58:56.854Z,68.93
2023-02-24T13:01:35.246Z,68.96
2023-02-24T13:04:24.850Z,69.09
2023-02-24T13:07:09.976Z,69.08
2023-02-24T13:09:46.537Z,69.19
2023-02-24T13:12:29.922Z,68.98
2023-02-24T13:14:58.048Z,68.94
2023-02-24T13:17:27.158Z,68.93
2023-02-24T13:19:55.905Z,68.79
2023-02-24T13:22:31.261Z,68.57
2023-02-24T13:25:01.222Z,68.11
2023-02-24T13:27:37.054Z,67.90
2023-02-24T13:30:07.810Z,67.66
2023-02-24T13:32:38.173Z,67.56
2023-02-24T13:35:27.136Z,67.42
2023-02-24T13:37:55.579Z,67.21
2023-02-24T13:40:26.681Z,67.15
2023-02-24T13:42:58.029Z,67.16
2023-02-24T13:45:29.199Z,67.13
2023-02-24T13:48:01.772Z,66.76
2023-02-24T13:50:59.022Z,66.84
2023-02-24T13:53:36.443Z,66.61
2023-02-24T13:56:25.805Z,66.44
2023-02-24T13:58:57.354Z,66.43
2023-02-24T14:01:26.909Z,66.38
2023-02-24T14:04:22.844Z,66.45
2023-02-24T14:06:56.646Z,66.40
2023-02-24T14:09:46.885Z,66.10
2023-02-24T14:12:19.136Z,66.08
2023-02-24T14:14:47.212Z,66.30
2023-02-24T14:17:34.772Z,66.43
2023-02-24T14:20:18.915Z,66.26
2023-02-24T14:22:55.924Z,66.34
2023-02-24T14:25:24.830Z,66.56
2023-02-24T14:27:53.745Z,66.66
2023-02-24T14:30:26.319Z,66.76
2023-02-24T14:32:57.433Z,66.75
2023-02-24T14:35:34.365Z,66.83
2023-02-24T14:38:28.200Z,66.88
2023-02-24T14:40:57.589Z,66.85
2023-02-24T14:43:28.109Z,66.88
2023-02-24T14:45:58.097Z,66.94
2023-02-24T14:48:30.489Z,66.74
2023-02-24T14:51:02.896Z,66.65
2023-02-24T14:53:31.058Z,66.81
2023-02-24T14:56:01.248Z,66.87
2023-02-24T14:58:33.837Z,66.82
2023-02-24T15:01:02.794Z,66.91
2023-02-24T15:03:38.970Z,66.80
2023-02-24T15:06:12.040Z,66.62
2023-02-24T15:08:46.539Z,66.68
2023-02-24T15:11:17.943Z,66.76
2023-02-24T15:13:48.855Z,66.53
2023-02-24T15:16:30.747Z,66.63
2023-02-24T15:19:01.254Z,66.79
2023-02-24T15:21:32.239Z,66.89
2023-02-24T15:24:13.498Z,66.93
2023-02-24T15:26:41.969Z,66.88
2023-02-24T15:29:14.774Z,66.99
2023-02-24T15:31:47.617Z,66.99
2023-02-24T15:34:29.889Z,66.95
2023-02-24T15:37:01.357Z,67.01
2023-02-24T15:39:31.838Z,67.05
2023-02-24T15:42:20.050Z,67.01
2023-02-24T15:44:54.828Z,67.14
2023-02-24T15:47:26.264Z,67.28
2023-02-24T15:49:55.943Z,67.25
2023-02-24T15:52:28.187Z,67.29
2023-02-24T15:54:58.149Z,67.43
2023-02-24T15:57:26.162Z,67.34
2023-02-24T15:59:54.190Z,67.37
2023-02-24T16:02:22.967Z,67.39
2023-02-24T16:04:51.846Z,67.34
2023-02-24T16:07:25.718Z,67.32
2023-02-24T16:09:54.744Z,67.57
2023-02-24T16:12:32.253Z,67.50
2023-02-24T16:15:05.594Z,67.55
2023-02-24T16:17:39.311Z,67.46
2023-02-24T16:20:19.092Z,67.37
2023-02-24T16:22:47.671Z,67.39
2023-02-24T16:25:16.516Z,67.50
2023-02-24T16:27:45.276Z,67.47
2023-02-24T16:30:22.436Z,67.50
2023-02-24T16:32:51.024Z,67.38
2023-02-24T16:35:19.796Z,67.38
2023-02-24T16:37:49.298Z,67.38
2023-02-24T16:40:30.189Z,67.43
2023-02-24T16:42:58.438Z,67.75
2023-02-24T16:45:27.245Z,67.69
2023-02-24T16:47:56.025Z,67.91
2023-02-24T16:50:33.632Z,67.88
2023-02-24T16:53:07.118Z,67.88
2023-02-24T16:55:35.775Z,67.95
2023-02-24T16:58:04.208Z,68.10
2023-02-24T17:00:32.600Z,68.20
2023-02-24T17:03:01.920Z,68.27
2023-02-24T17:05:30.065Z,68.27
2023-02-24T17:07:58.467Z,68.32
2023-02-24T17:10:28.651Z,68.35
2023-02-24T17:12:57.159Z,68.53
2023-02-24T17:15:25.282Z,68.73
2023-02-24T17:17:53.845Z,68.75
2023-02-24T17:20:22.085Z,68.82
2023-02-24T17:22:52.297Z,68.85
2023-02-24T17:25:24.726Z,68.79
2023-02-24T17:27:53.400Z,68.93
2023-02-24T17:30:27.179Z,68.96
2023-02-24T17:32:56.038Z,69.16
2023-02-24T17:35:24.218Z,69.06
2023-02-24T17:37:52.260Z,68.97
2023-02-24T17:40:21.751Z,68.92
2023-02-24T17:42:50.132Z,69.09
2023-02-24T17:45:18.304Z,69.34
2023-02-24T17:47:47.402Z,69.19
2023-02-24T17:50:15.509Z,69.28
2023-02-24T17:52:44.407Z,69.09
2023-02-24T17:55:12.537Z,69.13
2023-02-24T17:57:41.773Z,69.23
2023-02-24T18:00:10.806Z,69.18
2023-02-24T18:02:41.813Z,69.21
2023-02-24T18:05:10.510Z,69.29
2023-02-24T18:07:38.640Z,69.14
2023-02-24T18:10:08.247Z,69.27
2023-02-24T18:12:36.801Z,69.24
2023-02-24T18:15:09.576Z,69.25
2023-02-24T18:17:38.942Z,69.34
2023-02-24T18:20:12.489Z,69.51
2023-02-24T18:22:42.922Z,69.45
2023-02-24T18:25:11.101Z,69.44
2023-02-24T18:27:39.300Z,69.43
2023-02-24T18:30:13.118Z,69.42
2023-02-24T18:32:44.619Z,69.58
2023-02-24T18:35:13.019Z,69.55
2023-02-24T18:37:42.068Z,69.58
2023-02-24T18:40:10.862Z,69.53
2023-02-24T18:42:39.198Z,69.66
2023-02-24T18:45:07.664Z,69.88
2023-02-24T18:47:36.723Z,70.07
2023-02-24T18:50:05.241Z,69.91
2023-02-24T18:52:34.909Z,69.94
2023-02-24T18:55:03.219Z,70.04
2023-02-24T18:57:31.797Z,70.25
2023-02-24T19:00:00.234Z,70.30
2023-02-24T19:02:29.215Z,70.43
2023-02-24T19:04:57.321Z,70.47
2023-02-24T19:07:26.018Z,70.57
2023-02-24T19:09:56.661Z,70.64
2023-02-24T19:12:24.835Z,70.76
2023-02-24T19:14:53.024Z,70.81
2023-02-24T19:17:22.059Z,70.84
2023-02-24T19:19:50.711Z,70.92
2023-02-24T19:22:18.745Z,71.02
2023-02-24T19:24:46.985Z,71.23
2023-02-24T19:27:15.393Z,71.19
2023-02-24T19:29:43.775Z,71.19
2023-02-24T19:32:12.431Z,71.24
2023-02-24T19:34:42.984Z,71.46
2023-02-24T19:37:10.984Z,71.59
2023-02-24T19:39:39.434Z,71.85
2023-02-24T19:42:11.086Z,71.98
2023-02-24T19:44:42.774Z,72.29
2023-02-24T19:47:11.257Z,72.52
2023-02-24T19:49:39.388Z,72.54
2023-02-24T19:52:08.926Z,72.52
2023-02-24T19:54:37.505Z,72.50
2023-02-24T19:57:10.422Z,72.52
2023-02-24T19:59:39.617Z,72.64
2023-02-24T20:02:07.647Z,72.70
2023-02-24T20:04:36.215Z,72.65
2023-02-24T20:07:09.031Z,72.54
2023-02-24T20:09:37.845Z,72.86
2023-02-24T20:12:05.926Z,72.89
2023-02-24T20:14:34.227Z,73.11
2023-02-24T20:17:02.519Z,73.00
2023-02-24T20:19:33.737Z,73.01
2023-02-24T20:22:01.884Z,73.01
2023-02-24T20:24:30.276Z,72.95
2023-02-24T20:26:58.337Z,73.13
2023-02-24T20:29:27.202Z,72.96
2023-02-24T20:31:57.834Z,72.96
2023-02-24T20:34:27.648Z,72.95
2023-02-24T20:36:56.212Z,73.09
2023-02-24T20:39:27.127Z,73.22
2023-02-24T20:41:55.304Z,73.16
2023-02-24T20:44:24.776Z,73.11
2023-02-24T20:46:52.745Z,73.21
2023-02-24T20:49:20.933Z,73.37
2023-02-24T20:51:49.080Z,73.50
2023-02-24T20:54:17.149Z,73.57
2023-02-24T20:56:49.547Z,73.41
2023-02-24T20:59:19.282Z,73.52
2023-02-24T21:01:48.319Z,73.67
2023-02-24T21:04:18.470Z,73.82
2023-02-24T21:06:48.034Z,73.85
2023-02-24T21:09:19.711Z,73.83
2023-02-24T21:11:48.240Z,73.96
2023-02-24T21:14:16.786Z,73.93
2023-02-24T21:16:46.469Z,73.97
2023-02-24T21:19:14.736Z,73.91
2023-02-24T21:21:42.740Z,74.16
2023-02-24T21:24:12.980Z,74.39
2023-02-24T21:26:42.366Z,74.72
2023-02-24T21:29:12.008Z,74.82
2023-02-24T21:31:40.514Z,74.84
2023-02-24T21:34:12.306Z,74.95
2023-02-24T21:36:40.646Z,75.11
2023-02-24T21:39:09.239Z,75.39
2023-02-24T21:41:37.444Z,75.49
2023-02-24T21:44:05.489Z,75.67
2023-02-24T21:46:34.407Z,75.88
2023-02-24T21:49:03.321Z,76.13
2023-02-24T21:51:31.645Z,76.32
2023-02-24T21:54:00.935Z,76.44
2023-02-24T21:56:29.788Z,76.26
2023-02-24T21:59:00.819Z,76.29
2023-02-24T22:01:33.680Z,76.48
2023-02-24T22:04:03.705Z,76.30
2023-02-24T22:06:34.949Z,76.29
2023-02-24T22:09:05.409Z,76.34
2023-02-24T22:11:37.480Z,76.37
2023-02-24T22:14:12.494Z,76.33
2023-02-24T22:16:40.664Z,76.35
2023-02-24T22:19:08.684Z,76.33
2023-02-24T22:21:41.568Z,76.29
2023-02-24T22:24:14.343Z,76.32
2023-02-24T22:26:43.105Z,76.39
2023-02-24T22:29:11.501Z,76.36
2023-02-24T22:31:39.984Z,76.58
2023-02-24T22:34:09.898Z,76.62
2023-02-24T22:36:37.949Z,76.63
2023-02-24T22:39:09.410Z,76.59
2023-02-24T22:41:37.607Z,76.70
2023-02-24T22:44:05.904Z,76.72
2023-02-24T22:46:36.200Z,76.89
2023-02-24T22:49:05.395Z,76.84
2023-02-24T22:51:33.698Z,76.78
2023-02-24T22:54:01.795Z,76.87
2023-02-24T22:56:32.468Z,77.04
2023-02-24T22:59:01.643Z,76.93
2023-02-24T23:01:32.212Z,76.87
2023-02-24T23:04:01.532Z,76.94
2023-02-24T23:06:30.945Z,76.96
2023-02-24T23:09:00.143Z,76.93
2023-02-24T23:11:33.029Z,76.78
2023-02-24T23:14:03.639Z,76.73
2023-02-24T23:16:33.191Z,76.71
2023-02-24T23:19:13.132Z,76.84
2023-02-24T23:21:43.185Z,76.82
2023-02-24T23:24:12.700Z,76.77
2023-02-24T23:26:44.063Z,76.72
2023-02-24T23:29:14.753Z,76.77
2023-02-24T23:31:43.436Z,76.82
2023-02-24T23:34:12.172Z,76.70
2023-02-24T23:36:44.744Z,76.70
2023-02-24T23:39:23.134Z,76.79
2023-02-24T23:41:56.859Z,76.99
2023-02-24T23:44:25.202Z,76.96
2023-02-24T23:46:53.306Z,76.97
2023-02-24T23:49:24.122Z,77.05
2023-02-24T23:51:52.450Z,77.08
2023-02-24T23:54:20.512Z,77.03
2023-02-24T23:56:48.635Z,76.88
2023-02-24T23:59:21.580Z,76.87
